Aviation Digital Data Service (ADDS)

Output produced by METARs form (0521 UTC 21 January 2019)
found at http://www.aviationweather.gov/metar/data/
 
Forecast for: WIHH (HALIM PERDANAKUS, ID)
Text: TAF WIHH 210500Z 2106/2206 26008KT 6000 SCT018
Forecast period: 0600 to 1100 UTC 21 January 2019
Forecast type: FROM: standard forecast or significant change
Winds: from the W (260 degrees) at 9 MPH (8 knots; 4.1 m/s)
Visibility: 4 miles (6 km)
Ceiling: at least 12,000 feet AGL
Clouds: scattered clouds at 1800 feet AGL
Weather: no significant weather forecast for this period
Text: TEMPO 2107/2110 31010KT 4000 -RA FEW016CB SCT017
Forecast period: 0700 to 1000 UTC 21 January 2019
Forecast type: TEMPORARY: The following changes expected for less than half the time period
Winds: from the NW (310 degrees) at 12 MPH (10 knots; 5.1 m/s)
Visibility: 2.49 miles (4.01 km)
Ceiling: at least 12,000 feet AGL
Clouds: few clouds at 1600 feet AGL
scattered clouds at 1700 feet AGL
Weather: -RA  (light rain)
Text: BECMG 2111/2113 21005KT 5000 HZ FEW021
Forecast period: 1100 UTC 21 January 2019 to 0600 UTC 22 January 2019
Forecast type: BECOMING: Conditions expected to become as follows by 1300 UTC 21 January 2019
Winds: from the SSW (210 degrees) at 6 MPH (5 knots; 2.6 m/s)
Visibility: 3 miles (5 km)
Ceiling: at least 12,000 feet AGL
Clouds: few clouds at 2100 feet AGL
Weather: HZ  (haze)